sensor_id;sensor_type;location;lat;lon;timestamp;P1;durP1;ratioP1;P2;durP2;ratioP2
9689;SDS011;4884;42.614;23.340;2023-06-04T00:02:21;11.97;;;10.40;;
9689;SDS011;4884;42.614;23.340;2023-06-04T00:04:48;12.17;;;10.90;;
9689;SDS011;4884;42.614;23.340;2023-06-04T00:07:13;11.60;;;10.17;;
9689;SDS011;4884;42.614;23.340;2023-06-04T00:09:38;12.73;;;11.00;;
9689;SDS011;4884;42.614;23.340;2023-06-04T00:12:04;14.07;;;11.60;;
9689;SDS011;4884;42.614;23.340;2023-06-04T00:14:30;15.03;;;13.20;;
9689;SDS011;4884;42.614;23.340;2023-06-04T00:16:55;15.77;;;13.47;;
9689;SDS011;4884;42.614;23.340;2023-06-04T00:19:21;17.63;;;15.03;;
9689;SDS011;4884;42.614;23.340;2023-06-04T00:21:46;16.53;;;14.53;;
9689;SDS011;4884;42.614;23.340;2023-06-04T00:24:12;17.40;;;15.13;;
9689;SDS011;4884;42.614;23.340;2023-06-04T00:26:37;20.40;;;16.07;;
9689;SDS011;4884;42.614;23.340;2023-06-04T00:29:03;20.90;;;18.50;;
9689;SDS011;4884;42.614;23.340;2023-06-04T00:31:28;20.60;;;17.40;;
9689;SDS011;4884;42.614;23.340;2023-06-04T00:33:54;19.80;;;16.30;;
9689;SDS011;4884;42.614;23.340;2023-06-04T00:36:19;15.83;;;13.93;;
9689;SDS011;4884;42.614;23.340;2023-06-04T00:38:45;17.43;;;14.87;;
9689;SDS011;4884;42.614;23.340;2023-06-04T00:41:10;14.37;;;12.97;;
9689;SDS011;4884;42.614;23.340;2023-06-04T00:43:36;17.07;;;15.43;;
9689;SDS011;4884;42.614;23.340;2023-06-04T00:46:01;15.47;;;13.87;;
9689;SDS011;4884;42.614;23.340;2023-06-04T00:48:28;15.07;;;13.63;;
9689;SDS011;4884;42.614;23.340;2023-06-04T00:50:55;16.43;;;14.93;;
9689;SDS011;4884;42.614;23.340;2023-06-04T00:53:21;15.77;;;14.17;;
9689;SDS011;4884;42.614;23.340;2023-06-04T00:55:49;16.67;;;14.93;;
9689;SDS011;4884;42.614;23.340;2023-06-04T00:58:15;16.40;;;14.67;;
9689;SDS011;4884;42.614;23.340;2023-06-04T01:00:44;17.60;;;15.90;;
9689;SDS011;4884;42.614;23.340;2023-06-04T01:03:19;18.70;;;15.33;;
9689;SDS011;4884;42.614;23.340;2023-06-04T01:05:48;18.77;;;16.73;;
9689;SDS011;4884;42.614;23.340;2023-06-04T01:08:17;18.53;;;16.17;;
9689;SDS011;4884;42.614;23.340;2023-06-04T01:10:53;19.97;;;16.73;;
9689;SDS011;4884;42.614;23.340;2023-06-04T01:13:19;22.07;;;19.33;;
9689;SDS011;4884;42.614;23.340;2023-06-04T01:15:44;23.50;;;19.80;;
9689;SDS011;4884;42.614;23.340;2023-06-04T01:18:10;20.50;;;18.37;;
9689;SDS011;4884;42.614;23.340;2023-06-04T01:20:52;21.80;;;19.30;;
9689;SDS011;4884;42.614;23.340;2023-06-04T01:26:10;20.70;;;17.53;;
9689;SDS011;4884;42.614;23.340;2023-06-04T01:28:36;19.60;;;17.50;;
9689;SDS011;4884;42.614;23.340;2023-06-04T01:31:02;22.30;;;18.13;;
9689;SDS011;4884;42.614;23.340;2023-06-04T01:33:28;18.27;;;15.87;;
9689;SDS011;4884;42.614;23.340;2023-06-04T01:35:53;19.17;;;16.50;;
9689;SDS011;4884;42.614;23.340;2023-06-04T01:38:19;17.17;;;15.40;;
9689;SDS011;4884;42.614;23.340;2023-06-04T01:40:45;18.37;;;15.93;;
9689;SDS011;4884;42.614;23.340;2023-06-04T01:43:11;15.73;;;14.17;;
9689;SDS011;4884;42.614;23.340;2023-06-04T01:45:36;16.93;;;15.13;;
9689;SDS011;4884;42.614;23.340;2023-06-04T01:48:02;16.77;;;15.10;;
9689;SDS011;4884;42.614;23.340;2023-06-04T01:50:29;16.27;;;14.57;;
9689;SDS011;4884;42.614;23.340;2023-06-04T01:52:55;18.07;;;16.27;;
9689;SDS011;4884;42.614;23.340;2023-06-04T01:55:21;17.23;;;15.30;;
9689;SDS011;4884;42.614;23.340;2023-06-04T01:57:46;20.27;;;17.80;;
9689;SDS011;4884;42.614;23.340;2023-06-04T02:00:12;19.10;;;17.17;;
9689;SDS011;4884;42.614;23.340;2023-06-04T02:02:38;20.00;;;17.90;;
9689;SDS011;4884;42.614;23.340;2023-06-04T02:05:06;18.57;;;16.63;;
9689;SDS011;4884;42.614;23.340;2023-06-04T02:07:36;20.47;;;18.00;;
9689;SDS011;4884;42.614;23.340;2023-06-04T02:12:32;16.00;;;14.50;;
9689;SDS011;4884;42.614;23.340;2023-06-04T02:14:57;14.97;;;13.37;;
9689;SDS011;4884;42.614;23.340;2023-06-04T02:17:23;14.80;;;13.33;;
9689;SDS011;4884;42.614;23.340;2023-06-04T02:19:48;16.67;;;14.33;;
9689;SDS011;4884;42.614;23.340;2023-06-04T02:22:17;16.20;;;13.60;;
9689;SDS011;4884;42.614;23.340;2023-06-04T02:24:43;16.67;;;14.20;;
9689;SDS011;4884;42.614;23.340;2023-06-04T02:27:09;14.60;;;13.17;;
9689;SDS011;4884;42.614;23.340;2023-06-04T02:29:35;13.37;;;11.53;;
9689;SDS011;4884;42.614;23.340;2023-06-04T02:32:01;13.30;;;12.00;;
9689;SDS011;4884;42.614;23.340;2023-06-04T02:34:27;10.70;;;9.70;;
9689;SDS011;4884;42.614;23.340;2023-06-04T02:36:52;8.53;;;7.73;;
9689;SDS011;4884;42.614;23.340;2023-06-04T02:39:18;8.80;;;7.90;;
9689;SDS011;4884;42.614;23.340;2023-06-04T02:41:44;8.93;;;8.10;;
9689;SDS011;4884;42.614;23.340;2023-06-04T02:44:10;8.60;;;7.90;;
9689;SDS011;4884;42.614;23.340;2023-06-04T02:46:36;8.50;;;7.60;;
9689;SDS011;4884;42.614;23.340;2023-06-04T02:49:02;8.57;;;7.67;;
9689;SDS011;4884;42.614;23.340;2023-06-04T02:51:27;9.53;;;8.63;;
9689;SDS011;4884;42.614;23.340;2023-06-04T02:53:53;8.33;;;7.63;;
9689;SDS011;4884;42.614;23.340;2023-06-04T02:56:19;9.93;;;8.93;;
9689;SDS011;4884;42.614;23.340;2023-06-04T02:58:49;10.10;;;9.10;;
9689;SDS011;4884;42.614;23.340;2023-06-04T03:01:19;10.83;;;9.50;;
9689;SDS011;4884;42.614;23.340;2023-06-04T03:03:45;13.27;;;11.17;;
9689;SDS011;4884;42.614;23.340;2023-06-04T03:06:11;11.53;;;10.53;;
9689;SDS011;4884;42.614;23.340;2023-06-04T03:08:39;11.40;;;10.40;;
9689;SDS011;4884;42.614;23.340;2023-06-04T03:11:05;11.97;;;10.87;;
9689;SDS011;4884;42.614;23.340;2023-06-04T03:13:30;12.77;;;11.47;;
9689;SDS011;4884;42.614;23.340;2023-06-04T03:15:55;12.47;;;11.10;;
9689;SDS011;4884;42.614;23.340;2023-06-04T03:18:21;11.53;;;10.43;;
9689;SDS011;4884;42.614;23.340;2023-06-04T03:20:47;10.57;;;9.43;;
9689;SDS011;4884;42.614;23.340;2023-06-04T03:23:13;10.80;;;9.70;;
9689;SDS011;4884;42.614;23.340;2023-06-04T03:25:38;11.70;;;10.50;;
9689;SDS011;4884;42.614;23.340;2023-06-04T03:28:04;12.20;;;9.43;;
9689;SDS011;4884;42.614;23.340;2023-06-04T03:30:29;11.57;;;9.43;;
9689;SDS011;4884;42.614;23.340;2023-06-04T03:32:55;8.77;;;7.97;;
9689;SDS011;4884;42.614;23.340;2023-06-04T03:35:20;9.90;;;8.00;;
9689;SDS011;4884;42.614;23.340;2023-06-04T03:37:45;10.27;;;9.17;;
9689;SDS011;4884;42.614;23.340;2023-06-04T03:40:11;10.67;;;9.63;;
9689;SDS011;4884;42.614;23.340;2023-06-04T03:42:37;10.00;;;9.10;;
9689;SDS011;4884;42.614;23.340;2023-06-04T03:45:02;10.47;;;9.37;;
9689;SDS011;4884;42.614;23.340;2023-06-04T03:47:28;9.37;;;8.57;;
9689;SDS011;4884;42.614;23.340;2023-06-04T03:49:53;9.17;;;8.27;;
9689;SDS011;4884;42.614;23.340;2023-06-04T03:52:19;8.43;;;7.63;;
9689;SDS011;4884;42.614;23.340;2023-06-04T03:54:44;8.07;;;7.27;;
9689;SDS011;4884;42.614;23.340;2023-06-04T03:57:10;7.20;;;6.50;;
9689;SDS011;4884;42.614;23.340;2023-06-04T03:59:35;6.83;;;6.17;;
9689;SDS011;4884;42.614;23.340;2023-06-04T04:02:00;8.30;;;6.40;;
9689;SDS011;4884;42.614;23.340;2023-06-04T04:04:26;8.20;;;6.53;;
9689;SDS011;4884;42.614;23.340;2023-06-04T04:06:51;7.63;;;6.93;;
9689;SDS011;4884;42.614;23.340;2023-06-04T04:09:17;6.90;;;6.30;;
9689;SDS011;4884;42.614;23.340;2023-06-04T04:11:42;9.80;;;7.83;;
9689;SDS011;4884;42.614;23.340;2023-06-04T04:14:07;6.47;;;5.90;;
9689;SDS011;4884;42.614;23.340;2023-06-04T04:16:34;9.57;;;8.10;;
9689;SDS011;4884;42.614;23.340;2023-06-04T04:18:59;8.30;;;7.53;;
9689;SDS011;4884;42.614;23.340;2023-06-04T04:21:24;9.43;;;7.93;;
9689;SDS011;4884;42.614;23.340;2023-06-04T04:23:50;9.00;;;8.20;;
9689;SDS011;4884;42.614;23.340;2023-06-04T04:26:17;10.23;;;7.97;;
9689;SDS011;4884;42.614;23.340;2023-06-04T04:28:42;8.33;;;7.30;;
9689;SDS011;4884;42.614;23.340;2023-06-04T04:31:08;9.03;;;8.13;;
9689;SDS011;4884;42.614;23.340;2023-06-04T04:33:35;9.47;;;8.57;;
9689;SDS011;4884;42.614;23.340;2023-06-04T04:36:04;9.70;;;8.80;;
9689;SDS011;4884;42.614;23.340;2023-06-04T04:38:33;11.20;;;9.20;;
9689;SDS011;4884;42.614;23.340;2023-06-04T04:40:59;10.20;;;9.17;;
9689;SDS011;4884;42.614;23.340;2023-06-04T04:43:32;10.27;;;9.27;;
9689;SDS011;4884;42.614;23.340;2023-06-04T04:45:58;9.40;;;8.60;;
9689;SDS011;4884;42.614;23.340;2023-06-04T04:48:24;10.37;;;9.40;;
9689;SDS011;4884;42.614;23.340;2023-06-04T04:50:50;12.40;;;11.30;;
9689;SDS011;4884;42.614;23.340;2023-06-04T04:53:16;10.77;;;9.67;;
9689;SDS011;4884;42.614;23.340;2023-06-04T04:55:41;10.77;;;9.83;;
9689;SDS011;4884;42.614;23.340;2023-06-04T04:58:07;14.30;;;12.43;;
9689;SDS011;4884;42.614;23.340;2023-06-04T05:00:32;10.90;;;9.90;;
9689;SDS011;4884;42.614;23.340;2023-06-04T05:02:57;11.53;;;9.77;;
9689;SDS011;4884;42.614;23.340;2023-06-04T05:05:23;12.03;;;10.90;;
9689;SDS011;4884;42.614;23.340;2023-06-04T05:07:48;10.67;;;9.73;;
9689;SDS011;4884;42.614;23.340;2023-06-04T05:10:13;12.27;;;11.03;;
9689;SDS011;4884;42.614;23.340;2023-06-04T05:12:39;10.60;;;9.47;;
9689;SDS011;4884;42.614;23.340;2023-06-04T05:15:05;11.10;;;9.30;;
9689;SDS011;4884;42.614;23.340;2023-06-04T05:17:31;10.57;;;9.43;;
9689;SDS011;4884;42.614;23.340;2023-06-04T05:19:56;11.23;;;9.07;;
9689;SDS011;4884;42.614;23.340;2023-06-04T05:22:28;11.30;;;9.50;;
9689;SDS011;4884;42.614;23.340;2023-06-04T05:24:53;10.80;;;9.87;;
9689;SDS011;4884;42.614;23.340;2023-06-04T05:27:20;11.10;;;9.90;;
9689;SDS011;4884;42.614;23.340;2023-06-04T05:29:47;9.87;;;9.07;;
9689;SDS011;4884;42.614;23.340;2023-06-04T05:32:12;10.70;;;9.80;;
9689;SDS011;4884;42.614;23.340;2023-06-04T05:34:37;13.23;;;11.87;;
9689;SDS011;4884;42.614;23.340;2023-06-04T05:37:04;13.00;;;11.80;;
9689;SDS011;4884;42.614;23.340;2023-06-04T05:39:33;13.43;;;12.13;;
9689;SDS011;4884;42.614;23.340;2023-06-04T05:41:58;13.10;;;11.80;;
9689;SDS011;4884;42.614;23.340;2023-06-04T05:44:24;14.40;;;13.00;;
9689;SDS011;4884;42.614;23.340;2023-06-04T05:46:49;13.63;;;12.17;;
9689;SDS011;4884;42.614;23.340;2023-06-04T05:49:15;11.73;;;10.53;;
9689;SDS011;4884;42.614;23.340;2023-06-04T05:51:41;11.80;;;10.70;;
9689;SDS011;4884;42.614;23.340;2023-06-04T05:54:07;12.60;;;11.40;;
9689;SDS011;4884;42.614;23.340;2023-06-04T05:56:32;12.40;;;10.93;;
9689;SDS011;4884;42.614;23.340;2023-06-04T05:58:58;12.17;;;10.97;;
9689;SDS011;4884;42.614;23.340;2023-06-04T06:01:23;10.93;;;9.90;;
9689;SDS011;4884;42.614;23.340;2023-06-04T06:03:48;11.20;;;10.27;;
9689;SDS011;4884;42.614;23.340;2023-06-04T06:06:14;13.70;;;10.93;;
9689;SDS011;4884;42.614;23.340;2023-06-04T06:08:39;15.47;;;10.30;;
9689;SDS011;4884;42.614;23.340;2023-06-04T06:11:05;10.83;;;9.83;;
9689;SDS011;4884;42.614;23.340;2023-06-04T06:13:30;10.93;;;10.00;;
9689;SDS011;4884;42.614;23.340;2023-06-04T06:15:56;11.70;;;10.60;;
9689;SDS011;4884;42.614;23.340;2023-06-04T06:18:22;13.57;;;12.23;;
9689;SDS011;4884;42.614;23.340;2023-06-04T06:20:47;12.90;;;11.60;;
9689;SDS011;4884;42.614;23.340;2023-06-04T06:23:13;17.43;;;12.60;;
9689;SDS011;4884;42.614;23.340;2023-06-04T06:25:39;14.73;;;13.03;;
9689;SDS011;4884;42.614;23.340;2023-06-04T06:28:11;16.33;;;10.77;;
9689;SDS011;4884;42.614;23.340;2023-06-04T06:30:36;11.80;;;10.70;;
9689;SDS011;4884;42.614;23.340;2023-06-04T06:33:02;10.97;;;9.97;;
9689;SDS011;4884;42.614;23.340;2023-06-04T06:35:27;11.13;;;10.03;;
9689;SDS011;4884;42.614;23.340;2023-06-04T06:37:52;10.77;;;9.67;;
9689;SDS011;4884;42.614;23.340;2023-06-04T06:40:18;12.33;;;11.27;;
9689;SDS011;4884;42.614;23.340;2023-06-04T06:42:47;12.13;;;11.03;;
9689;SDS011;4884;42.614;23.340;2023-06-04T06:45:16;12.03;;;10.83;;
9689;SDS011;4884;42.614;23.340;2023-06-04T06:47:43;10.60;;;9.60;;
9689;SDS011;4884;42.614;23.340;2023-06-04T06:50:08;9.67;;;8.70;;
9689;SDS011;4884;42.614;23.340;2023-06-04T06:52:33;9.53;;;8.63;;
9689;SDS011;4884;42.614;23.340;2023-06-04T06:54:59;9.90;;;9.10;;
9689;SDS011;4884;42.614;23.340;2023-06-04T06:57:24;10.73;;;9.83;;
9689;SDS011;4884;42.614;23.340;2023-06-04T06:59:50;9.33;;;8.43;;
9689;SDS011;4884;42.614;23.340;2023-06-04T07:02:17;9.60;;;8.70;;
9689;SDS011;4884;42.614;23.340;2023-06-04T07:04:42;14.27;;;9.17;;
9689;SDS011;4884;42.614;23.340;2023-06-04T07:07:07;10.70;;;9.60;;
9689;SDS011;4884;42.614;23.340;2023-06-04T07:09:33;10.77;;;9.60;;
9689;SDS011;4884;42.614;23.340;2023-06-04T07:11:58;10.60;;;9.60;;
9689;SDS011;4884;42.614;23.340;2023-06-04T07:14:24;19.50;;;13.67;;
9689;SDS011;4884;42.614;23.340;2023-06-04T07:16:49;11.27;;;10.27;;
9689;SDS011;4884;42.614;23.340;2023-06-04T07:19:15;11.07;;;10.00;;
9689;SDS011;4884;42.614;23.340;2023-06-04T07:21:40;37.50;;;15.30;;
9689;SDS011;4884;42.614;23.340;2023-06-04T07:24:05;21.17;;;13.60;;
9689;SDS011;4884;42.614;23.340;2023-06-04T07:26:32;11.97;;;10.40;;
9689;SDS011;4884;42.614;23.340;2023-06-04T07:28:57;12.77;;;11.03;;
9689;SDS011;4884;42.614;23.340;2023-06-04T07:31:23;13.27;;;11.93;;
9689;SDS011;4884;42.614;23.340;2023-06-04T07:33:48;11.93;;;10.77;;
9689;SDS011;4884;42.614;23.340;2023-06-04T07:36:13;11.07;;;9.90;;
9689;SDS011;4884;42.614;23.340;2023-06-04T07:38:39;11.67;;;9.97;;
9689;SDS011;4884;42.614;23.340;2023-06-04T07:41:05;13.90;;;12.50;;
9689;SDS011;4884;42.614;23.340;2023-06-04T07:43:32;11.97;;;10.70;;
9689;SDS011;4884;42.614;23.340;2023-06-04T07:45:58;13.13;;;10.87;;
9689;SDS011;4884;42.614;23.340;2023-06-04T07:48:23;12.53;;;10.97;;
9689;SDS011;4884;42.614;23.340;2023-06-04T07:50:55;14.27;;;11.87;;
9689;SDS011;4884;42.614;23.340;2023-06-04T07:53:24;12.10;;;10.30;;
9689;SDS011;4884;42.614;23.340;2023-06-04T07:55:50;12.60;;;11.03;;
9689;SDS011;4884;42.614;23.340;2023-06-04T07:58:15;14.53;;;11.90;;
9689;SDS011;4884;42.614;23.340;2023-06-04T08:00:40;13.33;;;11.97;;
9689;SDS011;4884;42.614;23.340;2023-06-04T08:03:06;16.67;;;11.73;;
9689;SDS011;4884;42.614;23.340;2023-06-04T08:05:31;15.30;;;12.80;;
9689;SDS011;4884;42.614;23.340;2023-06-04T08:07:57;13.40;;;12.10;;
9689;SDS011;4884;42.614;23.340;2023-06-04T08:10:22;16.70;;;12.07;;
9689;SDS011;4884;42.614;23.340;2023-06-04T08:12:47;12.73;;;11.50;;
9689;SDS011;4884;42.614;23.340;2023-06-04T08:15:13;13.00;;;11.73;;
9689;SDS011;4884;42.614;23.340;2023-06-04T08:17:38;14.87;;;13.37;;
9689;SDS011;4884;42.614;23.340;2023-06-04T08:20:04;13.70;;;12.30;;
9689;SDS011;4884;42.614;23.340;2023-06-04T08:22:34;15.80;;;11.97;;
9689;SDS011;4884;42.614;23.340;2023-06-04T08:24:59;13.20;;;11.77;;
9689;SDS011;4884;42.614;23.340;2023-06-04T08:27:25;13.77;;;12.17;;
9689;SDS011;4884;42.614;23.340;2023-06-04T08:29:50;14.93;;;13.33;;
9689;SDS011;4884;42.614;23.340;2023-06-04T08:32:17;13.73;;;12.30;;
9689;SDS011;4884;42.614;23.340;2023-06-04T08:34:43;14.37;;;12.13;;
9689;SDS011;4884;42.614;23.340;2023-06-04T08:37:08;12.97;;;11.77;;
9689;SDS011;4884;42.614;23.340;2023-06-04T08:39:34;14.13;;;12.63;;
9689;SDS011;4884;42.614;23.340;2023-06-04T08:42:00;13.90;;;12.50;;
9689;SDS011;4884;42.614;23.340;2023-06-04T08:44:27;14.53;;;12.27;;
9689;SDS011;4884;42.614;23.340;2023-06-04T08:46:53;14.03;;;11.43;;
9689;SDS011;4884;42.614;23.340;2023-06-04T08:49:26;14.00;;;12.03;;
9689;SDS011;4884;42.614;23.340;2023-06-04T08:51:51;13.40;;;9.77;;
9689;SDS011;4884;42.614;23.340;2023-06-04T08:54:17;12.23;;;10.47;;
9689;SDS011;4884;42.614;23.340;2023-06-04T08:56:42;12.80;;;10.93;;
9689;SDS011;4884;42.614;23.340;2023-06-04T08:59:09;16.80;;;11.27;;
9689;SDS011;4884;42.614;23.340;2023-06-04T09:01:36;10.80;;;9.80;;
9689;SDS011;4884;42.614;23.340;2023-06-04T09:04:04;12.83;;;10.73;;
9689;SDS011;4884;42.614;23.340;2023-06-04T09:06:32;13.70;;;11.00;;
9689;SDS011;4884;42.614;23.340;2023-06-04T09:08:58;13.60;;;11.37;;
9689;SDS011;4884;42.614;23.340;2023-06-04T09:11:27;12.20;;;11.00;;
9689;SDS011;4884;42.614;23.340;2023-06-04T09:13:53;14.70;;;10.10;;
9689;SDS011;4884;42.614;23.340;2023-06-04T09:16:19;12.33;;;10.80;;
9689;SDS011;4884;42.614;23.340;2023-06-04T09:18:44;11.77;;;10.67;;
9689;SDS011;4884;42.614;23.340;2023-06-04T09:21:10;12.77;;;10.70;;
9689;SDS011;4884;42.614;23.340;2023-06-04T09:23:48;15.40;;;10.00;;
9689;SDS011;4884;42.614;23.340;2023-06-04T09:26:14;12.30;;;10.27;;
9689;SDS011;4884;42.614;23.340;2023-06-04T09:28:40;11.93;;;10.30;;
9689;SDS011;4884;42.614;23.340;2023-06-04T09:31:07;11.80;;;10.60;;
9689;SDS011;4884;42.614;23.340;2023-06-04T09:33:47;12.50;;;11.27;;
9689;SDS011;4884;42.614;23.340;2023-06-04T09:36:15;12.90;;;11.47;;
9689;SDS011;4884;42.614;23.340;2023-06-04T09:38:41;12.27;;;10.13;;
9689;SDS011;4884;42.614;23.340;2023-06-04T09:41:13;14.87;;;10.90;;
9689;SDS011;4884;42.614;23.340;2023-06-04T09:43:39;12.87;;;10.70;;
9689;SDS011;4884;42.614;23.340;2023-06-04T09:46:09;11.83;;;10.37;;
9689;SDS011;4884;42.614;23.340;2023-06-04T09:48:35;13.67;;;12.00;;
9689;SDS011;4884;42.614;23.340;2023-06-04T09:53:33;11.87;;;10.60;;
9689;SDS011;4884;42.614;23.340;2023-06-04T09:55:59;12.27;;;11.07;;
9689;SDS011;4884;42.614;23.340;2023-06-04T09:58:26;12.77;;;10.77;;
9689;SDS011;4884;42.614;23.340;2023-06-04T10:00:53;13.67;;;11.47;;
9689;SDS011;4884;42.614;23.340;2023-06-04T10:03:19;14.23;;;12.35;;
9689;SDS011;4884;42.614;23.340;2023-06-04T10:05:48;11.57;;;10.38;;
9689;SDS011;4884;42.614;23.340;2023-06-04T10:08:14;10.55;;;9.65;;
9689;SDS011;4884;42.614;23.340;2023-06-04T10:10:41;14.13;;;10.50;;
9689;SDS011;4884;42.614;23.340;2023-06-04T10:13:07;10.80;;;9.90;;
9689;SDS011;4884;42.614;23.340;2023-06-04T10:15:36;10.75;;;9.68;;
9689;SDS011;4884;42.614;23.340;2023-06-04T10:18:02;11.10;;;9.77;;
9689;SDS011;4884;42.614;23.340;2023-06-04T10:20:28;11.63;;;10.60;;
9689;SDS011;4884;42.614;23.340;2023-06-04T10:22:55;11.70;;;9.73;;
9689;SDS011;4884;42.614;23.340;2023-06-04T10:25:21;13.90;;;9.90;;
9689;SDS011;4884;42.614;23.340;2023-06-04T10:27:46;10.67;;;9.57;;
9689;SDS011;4884;42.614;23.340;2023-06-04T10:30:12;10.33;;;9.23;;
9689;SDS011;4884;42.614;23.340;2023-06-04T10:32:38;10.43;;;9.23;;
9689;SDS011;4884;42.614;23.340;2023-06-04T10:35:04;10.47;;;8.97;;
9689;SDS011;4884;42.614;23.340;2023-06-04T10:37:32;10.40;;;9.40;;
9689;SDS011;4884;42.614;23.340;2023-06-04T10:39:58;10.27;;;9.27;;
9689;SDS011;4884;42.614;23.340;2023-06-04T10:42:24;10.70;;;9.13;;
9689;SDS011;4884;42.614;23.340;2023-06-04T10:44:50;10.27;;;9.27;;
9689;SDS011;4884;42.614;23.340;2023-06-04T10:49:49;12.63;;;8.77;;
9689;SDS011;4884;42.614;23.340;2023-06-04T10:52:16;9.47;;;8.67;;
9689;SDS011;4884;42.614;23.340;2023-06-04T10:54:42;9.57;;;8.73;;
9689;SDS011;4884;42.614;23.340;2023-06-04T10:57:14;9.40;;;8.50;;
9689;SDS011;4884;42.614;23.340;2023-06-04T10:59:41;9.30;;;8.43;;
9689;SDS011;4884;42.614;23.340;2023-06-04T11:02:07;10.00;;;9.10;;
9689;SDS011;4884;42.614;23.340;2023-06-04T11:04:34;9.83;;;8.90;;
9689;SDS011;4884;42.614;23.340;2023-06-04T11:07:05;10.87;;;9.17;;
9689;SDS011;4884;42.614;23.340;2023-06-04T11:09:34;10.20;;;9.30;;
9689;SDS011;4884;42.614;23.340;2023-06-04T11:12:12;11.90;;;9.10;;
9689;SDS011;4884;42.614;23.340;2023-06-04T11:14:38;9.33;;;8.20;;
9689;SDS011;4884;42.614;23.340;2023-06-04T11:17:10;13.27;;;9.40;;
9689;SDS011;4884;42.614;23.340;2023-06-04T11:19:36;9.57;;;8.77;;
9689;SDS011;4884;42.614;23.340;2023-06-04T11:22:02;9.30;;;8.50;;
9689;SDS011;4884;42.614;23.340;2023-06-04T11:24:27;10.10;;;9.20;;
9689;SDS011;4884;42.614;23.340;2023-06-04T11:26:54;15.30;;;9.20;;
9689;SDS011;4884;42.614;23.340;2023-06-04T11:29:24;26.80;;;9.80;;
9689;SDS011;4884;42.614;23.340;2023-06-04T11:31:49;9.60;;;8.47;;
9689;SDS011;4884;42.614;23.340;2023-06-04T11:34:24;9.90;;;9.00;;
9689;SDS011;4884;42.614;23.340;2023-06-04T11:36:54;9.17;;;8.37;;
9689;SDS011;4884;42.614;23.340;2023-06-04T11:39:20;10.17;;;9.13;;
9689;SDS011;4884;42.614;23.340;2023-06-04T11:41:46;9.40;;;8.60;;
9689;SDS011;4884;42.614;23.340;2023-06-04T11:44:12;10.37;;;9.33;;
9689;SDS011;4884;42.614;23.340;2023-06-04T11:46:43;9.97;;;9.00;;
9689;SDS011;4884;42.614;23.340;2023-06-04T11:49:14;10.57;;;9.57;;
9689;SDS011;4884;42.614;23.340;2023-06-04T11:51:47;12.17;;;11.00;;
9689;SDS011;4884;42.614;23.340;2023-06-04T11:54:13;10.37;;;9.47;;
9689;SDS011;4884;42.614;23.340;2023-06-04T11:56:39;11.80;;;10.73;;
9689;SDS011;4884;42.614;23.340;2023-06-04T11:59:04;11.47;;;10.40;;
9689;SDS011;4884;42.614;23.340;2023-06-04T12:01:31;12.00;;;11.00;;
9689;SDS011;4884;42.614;23.340;2023-06-04T12:03:57;12.13;;;10.97;;
9689;SDS011;4884;42.614;23.340;2023-06-04T12:06:23;22.33;;;19.87;;
9689;SDS011;4884;42.614;23.340;2023-06-04T12:13:57;12.23;;;11.13;;
9689;SDS011;4884;42.614;23.340;2023-06-04T12:16:29;13.40;;;12.00;;
9689;SDS011;4884;42.614;23.340;2023-06-04T12:19:05;13.27;;;12.07;;
9689;SDS011;4884;42.614;23.340;2023-06-04T12:21:34;13.20;;;12.10;;
9689;SDS011;4884;42.614;23.340;2023-06-04T12:24:12;13.17;;;12.07;;
9689;SDS011;4884;42.614;23.340;2023-06-04T12:26:39;16.03;;;13.80;;
9689;SDS011;4884;42.614;23.340;2023-06-04T12:29:12;13.03;;;11.93;;
9689;SDS011;4884;42.614;23.340;2023-06-04T12:31:45;13.47;;;12.30;;
9689;SDS011;4884;42.614;23.340;2023-06-04T12:34:14;14.77;;;13.17;;
9689;SDS011;4884;42.614;23.340;2023-06-04T12:36:42;13.77;;;12.57;;
9689;SDS011;4884;42.614;23.340;2023-06-04T12:39:08;15.90;;;14.40;;
9689;SDS011;4884;42.614;23.340;2023-06-04T12:41:34;17.03;;;15.03;;
9689;SDS011;4884;42.614;23.340;2023-06-04T12:43:59;17.37;;;15.87;;
9689;SDS011;4884;42.614;23.340;2023-06-04T12:46:26;18.20;;;16.57;;
9689;SDS011;4884;42.614;23.340;2023-06-04T12:48:52;19.23;;;17.43;;
9689;SDS011;4884;42.614;23.340;2023-06-04T12:51:18;20.07;;;18.37;;
9689;SDS011;4884;42.614;23.340;2023-06-04T12:53:44;19.20;;;17.60;;
9689;SDS011;4884;42.614;23.340;2023-06-04T12:56:10;19.07;;;17.33;;
9689;SDS011;4884;42.614;23.340;2023-06-04T12:58:35;20.57;;;18.57;;
9689;SDS011;4884;42.614;23.340;2023-06-04T13:01:01;21.67;;;19.67;;
9689;SDS011;4884;42.614;23.340;2023-06-04T13:03:27;21.20;;;19.27;;
9689;SDS011;4884;42.614;23.340;2023-06-04T13:05:52;20.83;;;18.87;;
9689;SDS011;4884;42.614;23.340;2023-06-04T13:08:21;19.57;;;17.97;;
9689;SDS011;4884;42.614;23.340;2023-06-04T13:10:47;18.80;;;17.20;;
9689;SDS011;4884;42.614;23.340;2023-06-04T13:13:13;18.30;;;16.47;;
9689;SDS011;4884;42.614;23.340;2023-06-04T13:15:40;17.33;;;15.83;;
9689;SDS011;4884;42.614;23.340;2023-06-04T13:18:06;14.93;;;13.03;;
9689;SDS011;4884;42.614;23.340;2023-06-04T13:20:32;15.10;;;13.60;;
9689;SDS011;4884;42.614;23.340;2023-06-04T13:22:57;14.37;;;13.17;;
9689;SDS011;4884;42.614;23.340;2023-06-04T13:25:22;16.07;;;12.50;;
9689;SDS011;4884;42.614;23.340;2023-06-04T13:27:48;12.97;;;11.97;;
9689;SDS011;4884;42.614;23.340;2023-06-04T13:30:14;12.87;;;11.77;;
9689;SDS011;4884;42.614;23.340;2023-06-04T13:32:39;12.17;;;10.87;;
9689;SDS011;4884;42.614;23.340;2023-06-04T13:35:05;13.03;;;11.83;;
9689;SDS011;4884;42.614;23.340;2023-06-04T13:37:31;13.03;;;11.87;;
9689;SDS011;4884;42.614;23.340;2023-06-04T13:39:56;12.20;;;11.10;;
9689;SDS011;4884;42.614;23.340;2023-06-04T13:42:22;13.17;;;10.77;;
9689;SDS011;4884;42.614;23.340;2023-06-04T13:44:47;11.53;;;10.37;;
9689;SDS011;4884;42.614;23.340;2023-06-04T13:47:12;10.90;;;9.50;;
9689;SDS011;4884;42.614;23.340;2023-06-04T13:49:38;14.37;;;10.27;;
9689;SDS011;4884;42.614;23.340;2023-06-04T13:52:03;12.00;;;10.90;;
9689;SDS011;4884;42.614;23.340;2023-06-04T13:54:29;12.13;;;10.13;;
9689;SDS011;4884;42.614;23.340;2023-06-04T13:56:54;10.43;;;9.43;;
9689;SDS011;4884;42.614;23.340;2023-06-04T13:59:20;10.47;;;9.47;;
9689;SDS011;4884;42.614;23.340;2023-06-04T14:01:45;10.67;;;9.57;;
9689;SDS011;4884;42.614;23.340;2023-06-04T14:04:10;10.67;;;9.77;;
9689;SDS011;4884;42.614;23.340;2023-06-04T14:06:36;10.60;;;9.77;;
9689;SDS011;4884;42.614;23.340;2023-06-04T14:09:02;10.60;;;9.70;;
9689;SDS011;4884;42.614;23.340;2023-06-04T14:11:28;10.20;;;9.33;;
9689;SDS011;4884;42.614;23.340;2023-06-04T14:13:54;15.87;;;10.30;;
9689;SDS011;4884;42.614;23.340;2023-06-04T14:16:20;10.63;;;9.53;;
9689;SDS011;4884;42.614;23.340;2023-06-04T14:18:45;10.60;;;9.67;;
9689;SDS011;4884;42.614;23.340;2023-06-04T14:21:11;12.27;;;10.50;;
9689;SDS011;4884;42.614;23.340;2023-06-04T14:23:36;12.00;;;10.83;;
9689;SDS011;4884;42.614;23.340;2023-06-04T14:26:01;11.43;;;10.40;;
9689;SDS011;4884;42.614;23.340;2023-06-04T14:28:27;12.67;;;11.40;;
9689;SDS011;4884;42.614;23.340;2023-06-04T14:30:52;13.77;;;12.47;;
9689;SDS011;4884;42.614;23.340;2023-06-04T14:33:17;13.00;;;11.87;;
9689;SDS011;4884;42.614;23.340;2023-06-04T14:35:43;13.40;;;12.07;;
9689;SDS011;4884;42.614;23.340;2023-06-04T14:38:16;12.37;;;11.13;;
9689;SDS011;4884;42.614;23.340;2023-06-04T14:40:41;12.73;;;11.73;;
9689;SDS011;4884;42.614;23.340;2023-06-04T14:43:09;12.87;;;11.70;;
9689;SDS011;4884;42.614;23.340;2023-06-04T14:45:35;12.50;;;11.13;;
9689;SDS011;4884;42.614;23.340;2023-06-04T14:48:03;12.83;;;11.63;;
9689;SDS011;4884;42.614;23.340;2023-06-04T14:50:29;13.53;;;12.27;;
9689;SDS011;4884;42.614;23.340;2023-06-04T14:52:54;11.67;;;10.57;;